createdAt,value
2019-05-07T00:02:32.856Z,26.30
2019-05-07T00:05:22.845Z,24.27
2019-05-07T00:08:12.254Z,22.60
2019-05-07T00:11:02.354Z,23.43
2019-05-07T00:13:52.256Z,27.57
2019-05-07T00:16:42.186Z,23.03
2019-05-07T00:19:32.421Z,22.60
2019-05-07T00:22:22.750Z,24.00
2019-05-07T00:24:53.282Z,24.60
2019-05-07T00:27:42.759Z,27.27
2019-05-07T00:30:33.147Z,30.73
2019-05-07T00:33:23.255Z,31.40
2019-05-07T00:36:24.602Z,32.73
2019-05-07T00:39:35.563Z,23.43
2019-05-07T00:42:36.353Z,24.37
2019-05-07T00:45:42.221Z,22.47
2019-05-07T00:48:32.816Z,22.70
2019-05-07T00:51:28.127Z,24.20
2019-05-07T00:54:17.724Z,22.13
2019-05-07T00:57:06.556Z,26.40
2019-05-07T00:59:56.095Z,27.47
2019-05-07T01:02:45.187Z,25.97
2019-05-07T01:05:33.915Z,26.60
2019-05-07T01:08:23.448Z,23.07
2019-05-07T01:11:13.203Z,25.53
2019-05-07T01:14:02.891Z,23.10
2019-05-07T01:16:52.892Z,28.37
2019-05-07T01:19:42.386Z,22.20
2019-05-07T01:22:33.011Z,23.50
2019-05-07T01:25:22.240Z,22.33
2019-05-07T01:27:54.847Z,26.20
2019-05-07T01:30:44.442Z,24.67
2019-05-07T01:33:42.945Z,24.00
2019-05-07T01:36:32.237Z,28.53
2019-05-07T01:39:23.187Z,22.03
2019-05-07T01:42:12.753Z,23.50
2019-05-07T01:45:02.531Z,23.07
2019-05-07T01:47:53.088Z,22.10
2019-05-07T01:50:42.924Z,21.37
2019-05-07T01:53:20.084Z,24.13
2019-05-07T01:56:09.593Z,21.97
2019-05-07T01:58:58.299Z,29.10
2019-05-07T02:01:52.182Z,21.23
2019-05-07T02:04:46.709Z,22.40
2019-05-07T02:07:42.978Z,24.50
2019-05-07T02:10:39.775Z,23.73
2019-05-07T02:13:29.025Z,26.30
2019-05-07T02:16:17.599Z,23.20
2019-05-07T02:19:07.094Z,23.50
2019-05-07T02:21:56.397Z,25.10
2019-05-07T02:24:44.967Z,23.10
2019-05-07T02:27:18.485Z,24.83
2019-05-07T02:30:07.732Z,21.87
2019-05-07T02:32:56.617Z,23.03
2019-05-07T02:35:45.215Z,26.70
2019-05-07T02:38:46.595Z,20.60
2019-05-07T02:41:36.024Z,24.53
2019-05-07T02:44:25.276Z,25.00
2019-05-07T02:47:17.980Z,21.80
2019-05-07T02:50:16.912Z,22.00
2019-05-07T02:53:18.103Z,22.97
2019-05-07T02:56:06.507Z,28.60
2019-05-07T02:58:36.835Z,22.80
2019-05-07T03:01:26.743Z,23.03
2019-05-07T03:04:09.062Z,22.80
2019-05-07T03:06:58.034Z,21.27
2019-05-07T03:09:46.969Z,26.50
2019-05-07T03:12:35.955Z,24.77
2019-05-07T03:15:25.257Z,24.33
2019-05-07T03:18:03.478Z,23.50
2019-05-07T03:21:03.205Z,23.13
2019-05-07T03:23:57.859Z,23.83
2019-05-07T03:26:47.096Z,25.13
2019-05-07T03:29:38.136Z,24.57
2019-05-07T03:32:38.381Z,22.67
2019-05-07T03:35:37.063Z,24.77
2019-05-07T03:38:25.153Z,23.70
2019-05-07T03:41:13.886Z,23.90
2019-05-07T03:44:04.896Z,22.73
2019-05-07T03:47:01.764Z,24.50
2019-05-07T03:49:44.297Z,23.10
2019-05-07T03:52:33.810Z,23.20
2019-05-07T03:55:23.362Z,28.10
2019-05-07T03:58:03.233Z,23.40
2019-05-07T04:00:53.615Z,23.20
2019-05-07T04:03:44.513Z,25.50
2019-05-07T04:06:34.379Z,23.80
2019-05-07T04:09:24.116Z,27.50
2019-05-07T04:12:13.445Z,23.20
2019-05-07T04:15:03.440Z,24.00
2019-05-07T04:17:53.593Z,22.33
2019-05-07T04:20:43.741Z,28.10
2019-05-07T04:23:34.090Z,29.80
2019-05-07T04:26:33.588Z,26.73
2019-05-07T04:29:23.120Z,27.20
2019-05-07T04:32:14.428Z,23.47
2019-05-07T04:35:03.844Z,24.63
2019-05-07T04:37:53.366Z,25.07
2019-05-07T04:40:43.475Z,24.93
2019-05-07T04:43:14.075Z,29.47
2019-05-07T04:46:03.631Z,21.70
2019-05-07T04:48:52.842Z,23.23
2019-05-07T04:51:56.709Z,21.73
2019-05-07T04:54:35.772Z,30.57
2019-05-07T04:57:27.783Z,23.90
2019-05-07T05:00:18.037Z,25.57
2019-05-07T05:03:14.500Z,28.27
2019-05-07T05:06:04.419Z,22.93
2019-05-07T05:08:56.249Z,26.50
2019-05-07T05:11:44.500Z,25.00
2019-05-07T05:14:34.025Z,25.63
2019-05-07T05:17:23.674Z,25.83
2019-05-07T05:20:13.421Z,21.97
2019-05-07T05:23:24.086Z,25.77
2019-05-07T05:26:12.939Z,24.20
2019-05-07T05:29:02.455Z,25.43
2019-05-07T05:31:52.882Z,27.07
2019-05-07T05:34:42.607Z,25.40
2019-05-07T05:37:32.197Z,29.63
2019-05-07T05:40:22.671Z,25.77
2019-05-07T05:43:31.936Z,27.10
2019-05-07T05:46:22.674Z,28.40
2019-05-07T05:49:11.910Z,25.00
2019-05-07T05:52:29.682Z,27.67
2019-05-07T05:55:19.926Z,26.40
2019-05-07T05:58:12.361Z,27.23
2019-05-07T06:01:26.349Z,28.17
2019-05-07T06:04:22.668Z,27.60
2019-05-07T06:07:17.627Z,29.33
2019-05-07T06:10:19.182Z,25.13
2019-05-07T06:13:33.347Z,26.87
2019-05-07T06:16:25.619Z,28.60
2019-05-07T06:19:35.969Z,29.10
2019-05-07T06:22:33.042Z,38.93
2019-05-07T06:25:24.820Z,32.40
2019-05-07T06:28:13.396Z,32.30
2019-05-07T06:31:02.249Z,34.70
2019-05-07T06:33:52.362Z,30.50
2019-05-07T06:36:42.431Z,35.23
2019-05-07T06:39:38.492Z,32.60
2019-05-07T06:42:55.709Z,32.30
2019-05-07T06:45:48.187Z,31.63
2019-05-07T06:48:42.215Z,31.27
2019-05-07T06:51:27.809Z,35.83
2019-05-07T06:54:16.785Z,32.63
2019-05-07T06:57:05.693Z,30.03
2019-05-07T06:59:57.919Z,31.03
2019-05-07T07:02:53.192Z,34.87
2019-05-07T07:06:02.277Z,34.93
2019-05-07T07:09:01.756Z,29.67
2019-05-07T07:11:54.678Z,27.53
2019-05-07T07:14:43.404Z,25.27
2019-05-07T07:17:32.613Z,28.60
2019-05-07T07:20:21.996Z,28.80
2019-05-07T07:23:11.793Z,27.63
2019-05-07T07:26:03.261Z,31.10
2019-05-07T07:28:52.583Z,30.13
2019-05-07T07:31:48.147Z,28.97
2019-05-07T07:34:42.689Z,31.47
2019-05-07T07:37:35.798Z,39.17
2019-05-07T07:40:49.881Z,38.93
2019-05-07T07:43:38.666Z,35.90
2019-05-07T07:46:27.958Z,39.50
2019-05-07T07:49:17.278Z,38.43
2019-05-07T07:52:06.311Z,36.63
2019-05-07T07:54:55.627Z,33.03
2019-05-07T07:57:58.018Z,36.23
2019-05-07T08:01:05.964Z,34.83
2019-05-07T08:03:54.738Z,31.83
2019-05-07T08:06:43.874Z,35.80
2019-05-07T08:09:22.269Z,34.50
2019-05-07T08:12:12.549Z,35.37
2019-05-07T08:15:14.580Z,27.67
2019-05-07T08:17:52.179Z,30.20
2019-05-07T08:20:43.036Z,30.33
2019-05-07T08:23:32.044Z,27.40
2019-05-07T08:26:21.975Z,27.43
2019-05-07T08:29:12.021Z,23.60
2019-05-07T08:32:22.138Z,24.93
2019-05-07T08:35:32.773Z,25.67
2019-05-07T08:38:23.508Z,24.17
2019-05-07T08:41:12.579Z,24.73
2019-05-07T08:44:14.549Z,24.17
2019-05-07T08:47:35.376Z,23.70
2019-05-07T08:50:24.126Z,26.47
2019-05-07T08:53:13.276Z,24.80
2019-05-07T08:56:03.275Z,26.10
2019-05-07T08:58:53.280Z,23.50
2019-05-07T09:01:43.370Z,27.60
2019-05-07T09:04:33.061Z,23.80
2019-05-07T09:07:21.994Z,27.97
2019-05-07T09:10:12.770Z,23.57
2019-05-07T09:13:02.886Z,23.17
2019-05-07T09:15:52.860Z,22.17
2019-05-07T09:18:42.324Z,27.57
2019-05-07T09:21:32.253Z,26.63
2019-05-07T09:24:22.571Z,25.90
2019-05-07T09:27:16.905Z,27.20
2019-05-07T09:30:28.995Z,25.60
2019-05-07T09:33:23.511Z,25.30
2019-05-07T09:36:22.772Z,21.73
2019-05-07T09:39:12.276Z,22.33
2019-05-07T09:42:02.194Z,22.97
2019-05-07T09:44:52.933Z,21.00
2019-05-07T09:47:42.888Z,24.60
2019-05-07T09:50:32.567Z,23.57
2019-05-07T09:53:22.841Z,28.27
2019-05-07T09:56:12.335Z,28.87
2019-05-07T09:59:02.155Z,31.37
2019-05-07T10:01:51.974Z,35.57
2019-05-07T10:04:41.852Z,28.57
2019-05-07T10:07:32.472Z,30.10
2019-05-07T10:10:22.747Z,26.90
2019-05-07T10:13:34.102Z,33.37
2019-05-07T10:16:30.712Z,30.30
2019-05-07T10:19:19.337Z,28.27
2019-05-07T10:22:08.042Z,25.33
2019-05-07T10:24:57.063Z,27.83
2019-05-07T10:27:45.715Z,25.07
2019-05-07T10:30:35.037Z,25.17
2019-05-07T10:33:24.013Z,22.33
2019-05-07T10:36:13.377Z,22.50
2019-05-07T10:39:02.587Z,22.00
2019-05-07T10:41:51.777Z,23.73
2019-05-07T10:44:47.123Z,21.40
2019-05-07T10:48:02.560Z,17.10
2019-05-07T10:50:53.401Z,16.23
2019-05-07T10:53:43.335Z,18.00
2019-05-07T10:56:34.157Z,20.10
2019-05-07T10:59:23.228Z,13.90
2019-05-07T11:02:21.934Z,18.70
2019-05-07T11:05:12.987Z,20.53
2019-05-07T11:08:02.612Z,23.23
2019-05-07T11:10:52.170Z,25.13
2019-05-07T11:13:42.216Z,21.37
2019-05-07T11:16:35.969Z,23.23
2019-05-07T11:19:24.279Z,22.80
2019-05-07T11:22:13.119Z,18.30
2019-05-07T11:25:03.021Z,21.27
2019-05-07T11:27:52.430Z,22.43
2019-05-07T11:30:42.685Z,19.43
2019-05-07T11:33:32.507Z,17.17
2019-05-07T11:36:21.233Z,25.67
2019-05-07T11:39:12.070Z,18.30
2019-05-07T11:42:13.922Z,15.20
2019-05-07T11:45:02.911Z,15.87
2019-05-07T11:47:51.886Z,14.40
2019-05-07T11:51:00.440Z,17.17
2019-05-07T11:53:22.226Z,16.83
2019-05-07T11:55:52.431Z,13.90
2019-05-07T11:58:22.921Z,16.50
2019-05-07T12:01:04.006Z,16.87
2019-05-07T12:03:52.496Z,21.47
2019-05-07T12:06:22.597Z,23.40
2019-05-07T12:08:52.781Z,21.37
2019-05-07T12:11:22.725Z,17.63
2019-05-07T12:13:52.857Z,19.37
2019-05-07T12:16:42.580Z,25.30
2019-05-07T12:19:33.112Z,19.37
2019-05-07T12:22:39.813Z,20.53
2019-05-07T12:25:28.230Z,22.53
2019-05-07T12:28:17.260Z,19.87
2019-05-07T12:31:15.443Z,22.20
2019-05-07T12:34:26.160Z,17.83
2019-05-07T12:37:15.107Z,21.87
2019-05-07T12:40:04.364Z,17.63
2019-05-07T12:42:53.660Z,15.83
2019-05-07T12:45:42.586Z,13.50
2019-05-07T12:48:31.748Z,15.10
2019-05-07T12:51:33.115Z,15.67
2019-05-07T12:53:59.084Z,16.30
2019-05-07T12:56:29.118Z,17.73
2019-05-07T12:58:59.539Z,17.33
2019-05-07T13:02:26.681Z,17.47
2019-05-07T13:05:02.925Z,14.97
2019-05-07T13:07:53.651Z,15.20
2019-05-07T13:10:42.939Z,16.03
2019-05-07T13:13:32.406Z,14.57
2019-05-07T13:16:22.116Z,15.23
2019-05-07T13:19:13.074Z,13.70
2019-05-07T13:22:02.332Z,14.33
2019-05-07T13:24:52.915Z,14.83
2019-05-07T13:27:42.988Z,18.60
2019-05-07T13:30:32.524Z,14.30
2019-05-07T13:33:22.769Z,11.53
2019-05-07T13:36:12.348Z,15.10
2019-05-07T13:39:23.314Z,18.47
2019-05-07T13:42:33.070Z,15.43
2019-05-07T13:45:38.130Z,18.53
2019-05-07T13:48:27.681Z,13.80
2019-05-07T13:51:17.661Z,14.63
2019-05-07T13:54:06.845Z,15.23
2019-05-07T13:56:55.653Z,13.20
2019-05-07T13:59:44.479Z,14.30
2019-05-07T14:02:15.934Z,14.57
2019-05-07T14:05:04.970Z,16.67
2019-05-07T14:07:53.980Z,15.20
2019-05-07T14:10:43.644Z,14.10
2019-05-07T14:13:33.298Z,13.43
2019-05-07T14:16:22.786Z,14.03
2019-05-07T14:19:12.953Z,17.93
2019-05-07T14:22:14.731Z,15.77
2019-05-07T14:24:53.512Z,14.70
2019-05-07T14:27:43.028Z,14.80
2019-05-07T14:30:32.781Z,20.43
2019-05-07T14:33:40.245Z,16.10
2019-05-07T14:36:57.194Z,14.77
2019-05-07T14:39:46.098Z,13.50
2019-05-07T14:42:41.941Z,16.00
2019-05-07T14:45:32.699Z,21.30
2019-05-07T14:48:22.518Z,16.80
2019-05-07T14:51:12.704Z,19.17
2019-05-07T14:54:02.818Z,18.60
2019-05-07T14:56:52.510Z,15.70
2019-05-07T14:59:42.777Z,17.00
2019-05-07T15:02:32.619Z,15.37
2019-05-07T15:05:22.356Z,16.83
2019-05-07T15:08:14.308Z,15.87
2019-05-07T15:11:02.738Z,17.03
2019-05-07T15:13:52.697Z,12.33
2019-05-07T15:16:42.635Z,16.27
2019-05-07T15:19:32.135Z,13.30
2019-05-07T15:22:45.522Z,14.60
2019-05-07T15:25:22.720Z,13.90
2019-05-07T15:28:12.678Z,14.60
2019-05-07T15:31:17.397Z,14.47
2019-05-07T15:34:06.605Z,16.77
2019-05-07T15:36:55.850Z,15.93
2019-05-07T15:39:45.277Z,14.50
2019-05-07T15:42:15.424Z,16.83
2019-05-07T15:45:05.104Z,13.20
2019-05-07T15:47:55.359Z,13.47
2019-05-07T15:50:45.583Z,14.17
2019-05-07T15:53:46.149Z,11.40
2019-05-07T15:56:35.116Z,12.23
2019-05-07T15:59:26.672Z,13.23
2019-05-07T16:02:37.245Z,16.63
2019-05-07T16:05:26.511Z,14.70
2019-05-07T16:08:16.989Z,12.10
2019-05-07T16:11:06.604Z,12.40
2019-05-07T16:14:14.564Z,14.60
2019-05-07T16:17:17.847Z,13.97
2019-05-07T16:20:07.194Z,11.90
2019-05-07T16:23:12.103Z,11.63
2019-05-07T16:25:42.582Z,10.87
2019-05-07T16:28:32.396Z,14.93
2019-05-07T16:31:21.911Z,14.90
2019-05-07T16:34:15.265Z,14.00
2019-05-07T16:37:07.155Z,11.33
2019-05-07T16:39:54.014Z,10.90
2019-05-07T16:42:43.108Z,10.83
2019-05-07T16:45:32.261Z,11.87
2019-05-07T16:48:23.265Z,10.50
2019-05-07T16:51:13.024Z,12.33
2019-05-07T16:54:03.367Z,13.00
2019-05-07T16:57:26.478Z,10.70
2019-05-07T17:00:22.212Z,10.57
2019-05-07T17:03:14.634Z,12.53
2019-05-07T17:06:04.123Z,12.53
2019-05-07T17:09:02.425Z,15.00
2019-05-07T17:11:50.370Z,12.90
2019-05-07T17:14:39.600Z,10.90
2019-05-07T17:17:28.753Z,13.57
2019-05-07T17:20:17.760Z,17.90
2019-05-07T17:23:06.983Z,14.93
2019-05-07T17:25:56.004Z,12.83
2019-05-07T17:28:45.284Z,16.33
2019-05-07T17:31:34.338Z,14.73
2019-05-07T17:34:23.780Z,11.77
2019-05-07T17:37:12.905Z,13.47
2019-05-07T17:40:03.132Z,15.33
2019-05-07T17:42:52.577Z,15.27
2019-05-07T17:45:42.957Z,17.90
2019-05-07T17:48:33.096Z,14.27
2019-05-07T17:51:42.293Z,14.30
2019-05-07T17:54:32.107Z,12.07
2019-05-07T17:57:16.002Z,14.50
2019-05-07T18:00:05.850Z,11.57
2019-05-07T18:03:13.166Z,12.43
2019-05-07T18:06:03.103Z,18.17
2019-05-07T18:08:52.117Z,17.70
2019-05-07T18:11:42.852Z,11.90
2019-05-07T18:14:32.307Z,10.97
2019-05-07T18:17:48.959Z,12.80
2019-05-07T18:20:37.841Z,13.37
2019-05-07T18:23:27.076Z,10.80
2019-05-07T18:26:27.151Z,14.20
2019-05-07T18:29:06.429Z,13.37
2019-05-07T18:31:59.879Z,14.57
2019-05-07T18:34:49.218Z,12.80
2019-05-07T18:37:41.737Z,13.43
2019-05-07T18:40:30.719Z,11.67
2019-05-07T18:43:22.464Z,15.20
2019-05-07T18:46:12.838Z,13.40
2019-05-07T18:49:03.393Z,10.23
2019-05-07T18:51:52.282Z,12.13
2019-05-07T18:54:42.839Z,12.70
2019-05-07T18:57:32.844Z,12.57
2019-05-07T19:00:29.223Z,14.33
2019-05-07T19:02:59.647Z,15.07
2019-05-07T19:05:48.718Z,13.47
2019-05-07T19:08:37.499Z,11.00
2019-05-07T19:11:15.780Z,13.30
2019-05-07T19:14:05.212Z,12.77
2019-05-07T19:16:35.839Z,16.37
2019-05-07T19:19:25.945Z,13.50
2019-05-07T19:21:56.449Z,13.70
2019-05-07T19:24:48.134Z,14.53
2019-05-07T19:27:27.317Z,14.43
2019-05-07T19:30:16.294Z,15.80
2019-05-07T19:33:05.842Z,14.50
2019-05-07T19:35:55.460Z,12.43
2019-05-07T19:38:45.553Z,13.20
2019-05-07T19:41:35.148Z,13.50
2019-05-07T19:44:25.069Z,17.30
2019-05-07T19:47:14.382Z,13.93
2019-05-07T19:50:03.986Z,10.03
2019-05-07T19:52:34.189Z,14.37
2019-05-07T19:55:05.110Z,12.40
2019-05-07T19:57:42.621Z,13.93
2019-05-07T20:00:13.643Z,10.67
2019-05-07T20:02:46.974Z,12.57
2019-05-07T20:05:17.718Z,16.17
2019-05-07T20:07:48.401Z,12.80
2019-05-07T20:10:25.937Z,13.97
2019-05-07T20:13:14.483Z,13.43
2019-05-07T20:16:23.207Z,14.33
2019-05-07T20:19:12.718Z,11.63
2019-05-07T20:22:02.213Z,9.13
2019-05-07T20:24:52.786Z,14.70
2019-05-07T20:27:42.349Z,10.87
2019-05-07T20:30:32.455Z,10.87
2019-05-07T20:33:22.026Z,14.30
2019-05-07T20:36:11.752Z,11.13
2019-05-07T20:39:02.193Z,12.07
2019-05-07T20:41:52.616Z,11.03
2019-05-07T20:44:42.620Z,13.70
2019-05-07T20:47:32.603Z,10.80
2019-05-07T20:50:22.327Z,11.23
2019-05-07T20:53:11.289Z,12.77
2019-05-07T20:56:02.797Z,10.90
2019-05-07T20:58:52.958Z,14.60
2019-05-07T21:01:42.653Z,11.00
2019-05-07T21:04:32.995Z,13.53
2019-05-07T21:07:22.676Z,20.10
2019-05-07T21:10:12.709Z,11.90
2019-05-07T21:13:02.154Z,14.23
2019-05-07T21:15:52.662Z,14.63
2019-05-07T21:18:42.564Z,11.13
2019-05-07T21:21:32.672Z,12.10
2019-05-07T21:24:22.657Z,13.30
2019-05-07T21:27:12.338Z,13.20
2019-05-07T21:30:02.508Z,13.03
2019-05-07T21:32:51.781Z,13.77
2019-05-07T21:35:42.725Z,14.40
2019-05-07T21:38:32.785Z,12.57
2019-05-07T21:41:22.685Z,13.10
2019-05-07T21:44:12.201Z,12.97
2019-05-07T21:47:03.915Z,13.63
2019-05-07T21:49:55.240Z,18.87
2019-05-07T21:52:47.618Z,13.23
2019-05-07T21:56:03.056Z,13.60
2019-05-07T21:58:55.359Z,12.60
2019-05-07T22:01:47.202Z,12.53
2019-05-07T22:04:36.225Z,15.33
2019-05-07T22:07:24.981Z,13.00
2019-05-07T22:10:14.840Z,14.97
2019-05-07T22:12:45.124Z,13.37
2019-05-07T22:15:35.364Z,14.07
2019-05-07T22:18:24.333Z,14.07
2019-05-07T22:21:14.119Z,12.10
2019-05-07T22:24:03.862Z,13.10
2019-05-07T22:26:53.548Z,13.87
2019-05-07T22:29:43.302Z,14.43
2019-05-07T22:32:55.301Z,12.50
2019-05-07T22:35:44.398Z,11.87
2019-05-07T22:38:33.845Z,13.77
2019-05-07T22:41:23.491Z,11.70
2019-05-07T22:44:12.572Z,14.17
2019-05-07T22:47:19.002Z,11.90
2019-05-07T22:50:08.925Z,12.93
2019-05-07T22:52:58.295Z,12.93
2019-05-07T22:55:47.248Z,11.10
2019-05-07T22:58:43.397Z,12.80
2019-05-07T23:01:32.925Z,12.20
2019-05-07T23:04:22.987Z,11.87
2019-05-07T23:07:12.826Z,13.27
2019-05-07T23:10:02.789Z,9.00
2019-05-07T23:12:49.190Z,11.40
2019-05-07T23:15:37.754Z,10.80
2019-05-07T23:18:27.397Z,13.50
2019-05-07T23:21:16.254Z,10.83
2019-05-07T23:24:05.313Z,9.67
2019-05-07T23:26:54.736Z,9.63
2019-05-07T23:29:43.915Z,12.63
2019-05-07T23:32:33.198Z,10.03
2019-05-07T23:35:22.687Z,9.43
2019-05-07T23:38:15.794Z,9.93
2019-05-07T23:41:34.333Z,9.23
2019-05-07T23:44:23.735Z,8.70
2019-05-07T23:47:13.262Z,10.73
2019-05-07T23:50:02.556Z,8.70
2019-05-07T23:52:52.735Z,11.83
2019-05-07T23:55:42.435Z,12.10
2019-05-07T23:58:32.637Z,10.40
